sensor_id;sensor_type;location;lat;lon;timestamp;pressure;altitude;pressure_sealevel;temperature;humidity
21588;BME280;10956;48.878;13.316;2023-07-29T00:00:41;93898.97;;;17.77;100.00
21588;BME280;10956;48.878;13.316;2023-07-29T00:03:07;93897.53;;;17.80;100.00
21588;BME280;10956;48.878;13.316;2023-07-29T00:05:33;93902.56;;;17.72;100.00
21588;BME280;10956;48.878;13.316;2023-07-29T00:07:58;93904.78;;;17.70;100.00
21588;BME280;10956;48.878;13.316;2023-07-29T00:10:24;93899.91;;;17.72;100.00
21588;BME280;10956;48.878;13.316;2023-07-29T00:12:49;93897.88;;;17.69;100.00
21588;BME280;10956;48.878;13.316;2023-07-29T00:15:15;93894.75;;;17.67;100.00
21588;BME280;10956;48.878;13.316;2023-07-29T00:17:40;93903.69;;;17.71;100.00
21588;BME280;10956;48.878;13.316;2023-07-29T00:20:06;93897.25;;;17.72;100.00
21588;BME280;10956;48.878;13.316;2023-07-29T00:22:32;93897.56;;;17.62;100.00
21588;BME280;10956;48.878;13.316;2023-07-29T00:24:57;93895.19;;;17.61;100.00
21588;BME280;10956;48.878;13.316;2023-07-29T00:27:24;93897.41;;;17.59;100.00
21588;BME280;10956;48.878;13.316;2023-07-29T00:29:50;93892.84;;;17.59;100.00
21588;BME280;10956;48.878;13.316;2023-07-29T00:32:16;93891.13;;;17.55;100.00
21588;BME280;10956;48.878;13.316;2023-07-29T00:34:41;93886.75;;;17.50;100.00
21588;BME280;10956;48.878;13.316;2023-07-29T00:37:06;93886.28;;;17.48;100.00
21588;BME280;10956;48.878;13.316;2023-07-29T00:39:32;93890.19;;;17.51;100.00
21588;BME280;10956;48.878;13.316;2023-07-29T00:41:58;93885.50;;;17.48;100.00
21588;BME280;10956;48.878;13.316;2023-07-29T00:44:23;93884.25;;;17.45;100.00
21588;BME280;10956;48.878;13.316;2023-07-29T00:46:52;93881.59;;;17.45;100.00
21588;BME280;10956;48.878;13.316;2023-07-29T00:49:19;93872.03;;;17.44;100.00
21588;BME280;10956;48.878;13.316;2023-07-29T00:51:45;93874.69;;;17.44;100.00
21588;BME280;10956;48.878;13.316;2023-07-29T00:54:10;93877.84;;;17.46;100.00
21588;BME280;10956;48.878;13.316;2023-07-29T00:56:36;93880.97;;;17.48;100.00
21588;BME280;10956;48.878;13.316;2023-07-29T00:59:04;93885.50;;;17.48;100.00
21588;BME280;10956;48.878;13.316;2023-07-29T01:01:30;93877.19;;;17.49;100.00
21588;BME280;10956;48.878;13.316;2023-07-29T01:03:56;93879.22;;;17.52;100.00
21588;BME280;10956;48.878;13.316;2023-07-29T01:09:04;93887.84;;;17.49;100.00
21588;BME280;10956;48.878;13.316;2023-07-29T01:18:05;93880.03;;;17.44;100.00
21588;BME280;10956;48.878;13.316;2023-07-29T01:20:34;93879.09;;;17.40;100.00
21588;BME280;10956;48.878;13.316;2023-07-29T01:23:02;93877.53;;;17.39;100.00
21588;BME280;10956;48.878;13.316;2023-07-29T01:25:27;93873.75;;;17.40;100.00
21588;BME280;10956;48.878;13.316;2023-07-29T01:27:53;93872.19;;;17.39;100.00
21588;BME280;10956;48.878;13.316;2023-07-29T01:30:31;93870.47;;;17.34;100.00
21588;BME280;10956;48.878;13.316;2023-07-29T01:33:18;93877.69;;;17.34;100.00
21588;BME280;10956;48.878;13.316;2023-07-29T01:35:48;93882.22;;;17.33;100.00
21588;BME280;10956;48.878;13.316;2023-07-29T01:38:21;93873.47;;;17.33;100.00
21588;BME280;10956;48.878;13.316;2023-07-29T01:40:50;93883.19;;;17.29;100.00
21588;BME280;10956;48.878;13.316;2023-07-29T01:43:16;93873.94;;;17.26;100.00
21588;BME280;10956;48.878;13.316;2023-07-29T01:45:44;93874.88;;;17.22;100.00
21588;BME280;10956;48.878;13.316;2023-07-29T01:48:09;93876.28;;;17.19;100.00
21588;BME280;10956;48.878;13.316;2023-07-29T01:50:35;93878.16;;;17.19;100.00
21588;BME280;10956;48.878;13.316;2023-07-29T01:53:00;93875.19;;;17.20;100.00
21588;BME280;10956;48.878;13.316;2023-07-29T01:55:26;93880.69;;;17.24;100.00
21588;BME280;10956;48.878;13.316;2023-07-29T01:57:52;93868.47;;;17.23;100.00
21588;BME280;10956;48.878;13.316;2023-07-29T02:00:21;93873.78;;;17.23;100.00
21588;BME280;10956;48.878;13.316;2023-07-29T02:02:46;93880.69;;;17.24;100.00
21588;BME280;10956;48.878;13.316;2023-07-29T02:05:12;93875.34;;;17.24;100.00
21588;BME280;10956;48.878;13.316;2023-07-29T02:07:37;93881.63;;;17.28;100.00
21588;BME280;10956;48.878;13.316;2023-07-29T02:10:03;93876.91;;;17.25;100.00
21588;BME280;10956;48.878;13.316;2023-07-29T02:12:29;93871.59;;;17.25;100.00
21588;BME280;10956;48.878;13.316;2023-07-29T02:14:54;93877.69;;;17.25;100.00
21588;BME280;10956;48.878;13.316;2023-07-29T02:17:19;93867.81;;;17.26;100.00
21588;BME280;10956;48.878;13.316;2023-07-29T02:19:45;93854.81;;;17.24;100.00
21588;BME280;10956;48.878;13.316;2023-07-29T02:22:13;93854.03;;;17.24;100.00
21588;BME280;10956;48.878;13.316;2023-07-29T02:24:39;93852.00;;;17.21;100.00
21588;BME280;10956;48.878;13.316;2023-07-29T02:27:04;93856.88;;;17.19;100.00
21588;BME280;10956;48.878;13.316;2023-07-29T02:29:30;93852.66;;;17.18;100.00
21588;BME280;10956;48.878;13.316;2023-07-29T02:31:55;93849.19;;;17.17;100.00
21588;BME280;10956;48.878;13.316;2023-07-29T02:34:21;93852.97;;;17.16;100.00
21588;BME280;10956;48.878;13.316;2023-07-29T02:36:46;93855.16;;;17.14;100.00
21588;BME280;10956;48.878;13.316;2023-07-29T02:39:12;93852.81;;;17.13;100.00
21588;BME280;10956;48.878;13.316;2023-07-29T02:41:37;93842.78;;;17.09;100.00
21588;BME280;10956;48.878;13.316;2023-07-29T02:44:04;93850.94;;;17.04;100.00
21588;BME280;10956;48.878;13.316;2023-07-29T02:46:30;93856.09;;;17.01;100.00
21588;BME280;10956;48.878;13.316;2023-07-29T02:48:55;93864.88;;;17.01;100.00
21588;BME280;10956;48.878;13.316;2023-07-29T02:51:21;93860.47;;;16.97;100.00
21588;BME280;10956;48.878;13.316;2023-07-29T02:53:46;93858.59;;;16.97;100.00
21588;BME280;10956;48.878;13.316;2023-07-29T02:56:11;93866.13;;;16.95;100.00
21588;BME280;10956;48.878;13.316;2023-07-29T02:58:37;93868.16;;;16.98;100.00
21588;BME280;10956;48.878;13.316;2023-07-29T03:01:04;93862.19;;;17.01;100.00
21588;BME280;10956;48.878;13.316;2023-07-29T03:03:30;93865.50;;;16.98;100.00
21588;BME280;10956;48.878;13.316;2023-07-29T03:06:07;93864.41;;;16.99;100.00
21588;BME280;10956;48.878;13.316;2023-07-29T03:08:33;93873.31;;;17.03;100.00
21588;BME280;10956;48.878;13.316;2023-07-29T03:11:05;93874.88;;;17.04;100.00
21588;BME280;10956;48.878;13.316;2023-07-29T03:13:31;93877.53;;;17.04;100.00
21588;BME280;10956;48.878;13.316;2023-07-29T03:16:05;93872.84;;;17.01;100.00
21588;BME280;10956;48.878;13.316;2023-07-29T03:18:31;93881.00;;;17.05;100.00
21588;BME280;10956;48.878;13.316;2023-07-29T03:20:56;93878.66;;;17.03;100.00
21588;BME280;10956;48.878;13.316;2023-07-29T03:23:21;93880.53;;;17.11;100.00
21588;BME280;10956;48.878;13.316;2023-07-29T03:25:50;93876.91;;;17.07;100.00
21588;BME280;10956;48.878;13.316;2023-07-29T03:28:25;93881.31;;;17.12;100.00
21588;BME280;10956;48.878;13.316;2023-07-29T03:30:50;93886.00;;;17.06;100.00
21588;BME280;10956;48.878;13.316;2023-07-29T03:33:16;93884.44;;;17.05;100.00
21588;BME280;10956;48.878;13.316;2023-07-29T03:35:41;93883.97;;;17.03;100.00
21588;BME280;10956;48.878;13.316;2023-07-29T03:38:09;93901.97;;;17.06;100.00
21588;BME280;10956;48.878;13.316;2023-07-29T03:40:35;93899.00;;;17.08;100.00
21588;BME280;10956;48.878;13.316;2023-07-29T03:43:00;93909.34;;;17.09;100.00
21588;BME280;10956;48.878;13.316;2023-07-29T03:45:26;93909.50;;;17.04;100.00
21588;BME280;10956;48.878;13.316;2023-07-29T03:47:51;93911.06;;;17.05;100.00
21588;BME280;10956;48.878;13.316;2023-07-29T03:50:16;93913.88;;;17.09;100.00
21588;BME280;10956;48.878;13.316;2023-07-29T03:52:42;93922.03;;;17.13;100.00
21588;BME280;10956;48.878;13.316;2023-07-29T03:55:07;93917.47;;;17.13;100.00
21588;BME280;10956;48.878;13.316;2023-07-29T03:57:33;93919.06;;;17.14;100.00
21588;BME280;10956;48.878;13.316;2023-07-29T03:59:58;93919.84;;;17.15;100.00
21588;BME280;10956;48.878;13.316;2023-07-29T04:02:24;93915.59;;;17.14;100.00
21588;BME280;10956;48.878;13.316;2023-07-29T04:04:49;93911.22;;;17.18;100.00
21588;BME280;10956;48.878;13.316;2023-07-29T04:07:15;93909.50;;;17.22;100.00
21588;BME280;10956;48.878;13.316;2023-07-29T04:09:40;93907.31;;;17.32;100.00
21588;BME280;10956;48.878;13.316;2023-07-29T04:12:06;93905.25;;;17.29;100.00
21588;BME280;10956;48.878;13.316;2023-07-29T04:14:31;93910.75;;;17.33;100.00
21588;BME280;10956;48.878;13.316;2023-07-29T04:16:57;93906.50;;;17.40;100.00
21588;BME280;10956;48.878;13.316;2023-07-29T04:19:23;93898.03;;;17.47;100.00
21588;BME280;10956;48.878;13.316;2023-07-29T04:21:48;93894.13;;;17.53;100.00
21588;BME280;10956;48.878;13.316;2023-07-29T04:24:16;93901.00;;;17.54;100.00
21588;BME280;10956;48.878;13.316;2023-07-29T04:26:41;93895.69;;;17.54;100.00
21588;BME280;10956;48.878;13.316;2023-07-29T04:29:06;93898.66;;;17.53;100.00
21588;BME280;10956;48.878;13.316;2023-07-29T04:31:32;93906.34;;;17.54;100.00
21588;BME280;10956;48.878;13.316;2023-07-29T04:33:57;93918.72;;;17.50;100.00
21588;BME280;10956;48.878;13.316;2023-07-29T04:36:23;93905.88;;;17.43;100.00
21588;BME280;10956;48.878;13.316;2023-07-29T04:38:48;93921.72;;;17.40;100.00
21588;BME280;10956;48.878;13.316;2023-07-29T04:41:13;93915.28;;;17.32;100.00
21588;BME280;10956;48.878;13.316;2023-07-29T04:43:39;93923.28;;;17.32;100.00
21588;BME280;10956;48.878;13.316;2023-07-29T04:46:08;93916.06;;;17.33;100.00
21588;BME280;10956;48.878;13.316;2023-07-29T04:48:36;93914.03;;;17.38;100.00
21588;BME280;10956;48.878;13.316;2023-07-29T04:51:01;93912.00;;;17.44;100.00
21588;BME280;10956;48.878;13.316;2023-07-29T04:53:27;93910.44;;;17.43;100.00
21588;BME280;10956;48.878;13.316;2023-07-29T04:55:52;93913.88;;;17.43;100.00
21588;BME280;10956;48.878;13.316;2023-07-29T04:58:18;93916.53;;;17.61;100.00
21588;BME280;10956;48.878;13.316;2023-07-29T05:00:43;93916.50;;;17.87;100.00
21588;BME280;10956;48.878;13.316;2023-07-29T05:03:08;93917.25;;;17.96;100.00
21588;BME280;10956;48.878;13.316;2023-07-29T05:05:34;93914.28;;;17.97;100.00
21588;BME280;10956;48.878;13.316;2023-07-29T05:07:59;93907.84;;;17.98;100.00
21588;BME280;10956;48.878;13.316;2023-07-29T05:10:25;93905.19;;;17.90;100.00
21588;BME280;10956;48.878;13.316;2023-07-29T05:12:50;93912.41;;;17.89;100.00
21588;BME280;10956;48.878;13.316;2023-07-29T05:15:16;93911.16;;;17.87;100.00
21588;BME280;10956;48.878;13.316;2023-07-29T05:17:41;93913.81;;;17.95;100.00
21588;BME280;10956;48.878;13.316;2023-07-29T05:20:07;93914.75;;;17.99;100.00
21588;BME280;10956;48.878;13.316;2023-07-29T05:22:33;93921.31;;;18.02;100.00
21588;BME280;10956;48.878;13.316;2023-07-29T05:24:58;93916.13;;;18.05;100.00
21588;BME280;10956;48.878;13.316;2023-07-29T05:27:24;93909.38;;;18.08;100.00
21588;BME280;10956;48.878;13.316;2023-07-29T05:29:49;93908.75;;;18.11;100.00
21588;BME280;10956;48.878;13.316;2023-07-29T05:32:14;93907.09;;;18.27;100.00
21588;BME280;10956;48.878;13.316;2023-07-29T05:34:40;93905.47;;;18.44;100.00
21588;BME280;10956;48.878;13.316;2023-07-29T05:37:05;93915.13;;;18.57;100.00
21588;BME280;10956;48.878;13.316;2023-07-29T05:39:31;93918.53;;;18.75;100.00
21588;BME280;10956;48.878;13.316;2023-07-29T05:41:57;93921.22;;;19.16;100.00
21588;BME280;10956;48.878;13.316;2023-07-29T05:44:23;93921.47;;;19.44;100.00
21588;BME280;10956;48.878;13.316;2023-07-29T05:46:48;93916.59;;;19.46;100.00
21588;BME280;10956;48.878;13.316;2023-07-29T05:49:13;93909.22;;;19.43;100.00
21588;BME280;10956;48.878;13.316;2023-07-29T05:51:39;93903.75;;;19.40;100.00
21588;BME280;10956;48.878;13.316;2023-07-29T05:54:04;93904.00;;;19.47;100.00
21588;BME280;10956;48.878;13.316;2023-07-29T05:56:30;93908.84;;;19.53;100.00
21588;BME280;10956;48.878;13.316;2023-07-29T05:58:56;93902.03;;;19.77;100.00
21588;BME280;10956;48.878;13.316;2023-07-29T06:01:22;93905.63;;;19.93;100.00
21588;BME280;10956;48.878;13.316;2023-07-29T06:03:47;93908.31;;;19.93;100.00
21588;BME280;10956;48.878;13.316;2023-07-29T06:06:13;93900.28;;;19.93;100.00
21588;BME280;10956;48.878;13.316;2023-07-29T06:08:38;93906.91;;;20.08;100.00
21588;BME280;10956;48.878;13.316;2023-07-29T06:11:04;93906.59;;;20.33;100.00
21588;BME280;10956;48.878;13.316;2023-07-29T06:13:32;93902.41;;;20.57;100.00
21588;BME280;10956;48.878;13.316;2023-07-29T06:15:57;93898.59;;;20.82;100.00
21588;BME280;10956;48.878;13.316;2023-07-29T06:18:23;93904.13;;;21.02;100.00
21588;BME280;10956;48.878;13.316;2023-07-29T06:20:48;93905.81;;;21.06;100.00
21588;BME280;10956;48.878;13.316;2023-07-29T06:23:13;93901.34;;;20.98;100.00
21588;BME280;10956;48.878;13.316;2023-07-29T06:25:39;93905.94;;;20.98;100.00
21588;BME280;10956;48.878;13.316;2023-07-29T06:28:04;93902.78;;;21.08;100.00
21588;BME280;10956;48.878;13.316;2023-07-29T06:30:30;93910.00;;;21.32;100.00
21588;BME280;10956;48.878;13.316;2023-07-29T06:32:55;93908.28;;;21.51;100.00
21588;BME280;10956;48.878;13.316;2023-07-29T06:35:21;93913.34;;;21.69;100.00
21588;BME280;10956;48.878;13.316;2023-07-29T06:37:46;93907.50;;;21.79;100.00
21588;BME280;10956;48.878;13.316;2023-07-29T06:40:12;93914.41;;;21.80;100.00
21588;BME280;10956;48.878;13.316;2023-07-29T06:42:37;93909.44;;;21.66;100.00
21588;BME280;10956;48.878;13.316;2023-07-29T06:45:04;93906.00;;;21.66;100.00
21588;BME280;10956;48.878;13.316;2023-07-29T06:47:30;93911.38;;;21.81;100.00
21588;BME280;10956;48.878;13.316;2023-07-29T06:49:55;93898.69;;;21.94;100.00
21588;BME280;10956;48.878;13.316;2023-07-29T06:52:21;93911.06;;;21.99;100.00
21588;BME280;10956;48.878;13.316;2023-07-29T06:54:46;93904.25;;;22.01;100.00
21588;BME280;10956;48.878;13.316;2023-07-29T06:57:11;93899.19;;;22.12;100.00
21588;BME280;10956;48.878;13.316;2023-07-29T06:59:37;93896.59;;;22.15;100.00
21588;BME280;10956;48.878;13.316;2023-07-29T07:02:02;93896.19;;;22.01;100.00
21588;BME280;10956;48.878;13.316;2023-07-29T07:04:28;93898.75;;;21.82;100.00
21588;BME280;10956;48.878;13.316;2023-07-29T07:06:54;93889.53;;;21.95;100.00
21588;BME280;10956;48.878;13.316;2023-07-29T07:09:19;93893.72;;;22.08;100.00
21588;BME280;10956;48.878;13.316;2023-07-29T07:11:45;93893.47;;;22.13;100.00
21588;BME280;10956;48.878;13.316;2023-07-29T07:14:10;93887.97;;;21.94;100.00
21588;BME280;10956;48.878;13.316;2023-07-29T07:16:36;93881.16;;;21.69;100.00
21588;BME280;10956;48.878;13.316;2023-07-29T07:19:02;93888.63;;;21.47;100.00
21588;BME280;10956;48.878;13.316;2023-07-29T07:21:28;93887.91;;;21.63;100.00
21588;BME280;10956;48.878;13.316;2023-07-29T07:23:53;93886.22;;;21.86;100.00
21588;BME280;10956;48.878;13.316;2023-07-29T07:26:19;93888.53;;;22.15;100.00
21588;BME280;10956;48.878;13.316;2023-07-29T07:28:44;93889.59;;;22.27;100.00
21588;BME280;10956;48.878;13.316;2023-07-29T07:31:09;93897.72;;;22.14;100.00
21588;BME280;10956;48.878;13.316;2023-07-29T07:33:35;93894.50;;;22.24;100.00
21588;BME280;10956;48.878;13.316;2023-07-29T07:36:00;93889.41;;;22.35;100.00
21588;BME280;10956;48.878;13.316;2023-07-29T07:38:26;93889.56;;;22.42;100.00
21588;BME280;10956;48.878;13.316;2023-07-29T07:40:55;93893.66;;;22.52;100.00
21588;BME280;10956;48.878;13.316;2023-07-29T07:43:22;93890.44;;;22.62;100.00
21588;BME280;10956;48.878;13.316;2023-07-29T07:45:47;93887.66;;;22.74;100.00
21588;BME280;10956;48.878;13.316;2023-07-29T07:48:13;93888.00;;;22.88;100.00
21588;BME280;10956;48.878;13.316;2023-07-29T07:50:39;93890.41;;;22.94;100.00
21588;BME280;10956;48.878;13.316;2023-07-29T07:53:04;93895.94;;;23.01;100.00
21588;BME280;10956;48.878;13.316;2023-07-29T07:55:30;93897.59;;;23.25;100.00
21588;BME280;10956;48.878;13.316;2023-07-29T07:57:55;93886.94;;;23.47;100.00
21588;BME280;10956;48.878;13.316;2023-07-29T08:00:21;93882.56;;;23.59;99.97
21588;BME280;10956;48.878;13.316;2023-07-29T08:02:46;93877.47;;;23.73;99.28
21588;BME280;10956;48.878;13.316;2023-07-29T08:05:12;93882.69;;;23.66;98.82
21588;BME280;10956;48.878;13.316;2023-07-29T08:07:37;93884.19;;;23.82;97.53
21588;BME280;10956;48.878;13.316;2023-07-29T08:10:03;93887.31;;;24.07;96.65
21588;BME280;10956;48.878;13.316;2023-07-29T08:12:28;93895.16;;;24.16;96.83
21588;BME280;10956;48.878;13.316;2023-07-29T08:14:53;93888.34;;;24.22;96.69
21588;BME280;10956;48.878;13.316;2023-07-29T08:17:19;93880.38;;;24.06;95.04
21588;BME280;10956;48.878;13.316;2023-07-29T08:19:44;93877.72;;;23.87;95.61
21588;BME280;10956;48.878;13.316;2023-07-29T08:22:10;93876.31;;;23.74;96.77
21588;BME280;10956;48.878;13.316;2023-07-29T08:24:35;93883.25;;;23.75;97.07
21588;BME280;10956;48.878;13.316;2023-07-29T08:27:01;93885.09;;;23.90;96.72
21588;BME280;10956;48.878;13.316;2023-07-29T08:29:26;93896.41;;;23.99;96.76
21588;BME280;10956;48.878;13.316;2023-07-29T08:31:52;93895.03;;;24.09;96.65
21588;BME280;10956;48.878;13.316;2023-07-29T08:34:17;93892.22;;;24.25;95.98
21588;BME280;10956;48.878;13.316;2023-07-29T08:36:43;93888.41;;;24.26;96.14
21588;BME280;10956;48.878;13.316;2023-07-29T08:39:08;93890.19;;;24.18;96.35
21588;BME280;10956;48.878;13.316;2023-07-29T08:44:18;93891.63;;;24.80;91.90
21588;BME280;10956;48.878;13.316;2023-07-29T08:46:46;93882.72;;;25.03;90.49
21588;BME280;10956;48.878;13.316;2023-07-29T08:49:12;93893.50;;;25.03;90.77
21588;BME280;10956;48.878;13.316;2023-07-29T08:51:39;93899.44;;;24.89;91.98
21588;BME280;10956;48.878;13.316;2023-07-29T08:54:07;93914.28;;;24.53;93.63
21588;BME280;10956;48.878;13.316;2023-07-29T08:56:34;93906.72;;;24.16;95.56
21588;BME280;10956;48.878;13.316;2023-07-29T08:59:00;93908.59;;;23.74;98.05
21588;BME280;10956;48.878;13.316;2023-07-29T09:01:27;93916.50;;;23.28;98.82
21588;BME280;10956;48.878;13.316;2023-07-29T09:03:53;93918.66;;;22.87;100.00
21588;BME280;10956;48.878;13.316;2023-07-29T09:06:19;93918.16;;;22.35;100.00
21588;BME280;10956;48.878;13.316;2023-07-29T09:08:48;93916.50;;;22.14;100.00
21588;BME280;10956;48.878;13.316;2023-07-29T09:11:14;93923.09;;;22.33;100.00
21588;BME280;10956;48.878;13.316;2023-07-29T09:13:42;93927.16;;;22.74;100.00
21588;BME280;10956;48.878;13.316;2023-07-29T09:16:08;93920.00;;;23.13;100.00
21588;BME280;10956;48.878;13.316;2023-07-29T09:18:34;93913.81;;;23.47;100.00
21588;BME280;10956;48.878;13.316;2023-07-29T09:21:00;93905.28;;;23.61;100.00
21588;BME280;10956;48.878;13.316;2023-07-29T09:23:32;93913.94;;;23.35;98.14
21588;BME280;10956;48.878;13.316;2023-07-29T09:26:03;93908.25;;;23.02;98.22
21588;BME280;10956;48.878;13.316;2023-07-29T09:28:33;93919.19;;;22.77;98.62
21588;BME280;10956;48.878;13.316;2023-07-29T09:30:59;93922.84;;;22.38;99.87
21588;BME280;10956;48.878;13.316;2023-07-29T09:33:26;93930.88;;;21.94;100.00
21588;BME280;10956;48.878;13.316;2023-07-29T09:35:52;93933.81;;;21.61;100.00
21588;BME280;10956;48.878;13.316;2023-07-29T09:38:17;93925.53;;;21.38;100.00
21588;BME280;10956;48.878;13.316;2023-07-29T09:40:42;93927.09;;;21.39;100.00
21588;BME280;10956;48.878;13.316;2023-07-29T09:43:10;93941.81;;;21.45;100.00
21588;BME280;10956;48.878;13.316;2023-07-29T09:45:37;93945.31;;;21.34;100.00
21588;BME280;10956;48.878;13.316;2023-07-29T09:48:04;93946.31;;;21.17;100.00
21588;BME280;10956;48.878;13.316;2023-07-29T09:50:35;93945.66;;;20.95;100.00
21588;BME280;10956;48.878;13.316;2023-07-29T09:53:02;93947.91;;;20.81;100.00
21588;BME280;10956;48.878;13.316;2023-07-29T09:55:28;93951.81;;;20.72;100.00
21588;BME280;10956;48.878;13.316;2023-07-29T09:57:56;93952.16;;;20.58;100.00
21588;BME280;10956;48.878;13.316;2023-07-29T10:00:23;93962.50;;;20.47;100.00
21588;BME280;10956;48.878;13.316;2023-07-29T10:02:49;93954.88;;;20.37;100.00
21588;BME280;10956;48.878;13.316;2023-07-29T10:05:15;93964.94;;;20.40;100.00
21588;BME280;10956;48.878;13.316;2023-07-29T10:07:40;93952.53;;;20.36;100.00
21588;BME280;10956;48.878;13.316;2023-07-29T10:10:07;93952.97;;;20.38;100.00
21588;BME280;10956;48.878;13.316;2023-07-29T10:12:34;93947.69;;;20.50;100.00
21588;BME280;10956;48.878;13.316;2023-07-29T10:15:01;93938.31;;;20.68;100.00
21588;BME280;10956;48.878;13.316;2023-07-29T10:17:28;93936.97;;;20.86;100.00
21588;BME280;10956;48.878;13.316;2023-07-29T10:19:56;93940.41;;;20.99;100.00
21588;BME280;10956;48.878;13.316;2023-07-29T10:22:25;93930.22;;;21.17;100.00
21588;BME280;10956;48.878;13.316;2023-07-29T10:24:56;93914.81;;;21.38;100.00
21588;BME280;10956;48.878;13.316;2023-07-29T10:27:24;93909.16;;;21.55;100.00
21588;BME280;10956;48.878;13.316;2023-07-29T10:29:54;93911.09;;;21.71;100.00
21588;BME280;10956;48.878;13.316;2023-07-29T10:32:24;93910.31;;;21.70;100.00
21588;BME280;10956;48.878;13.316;2023-07-29T10:34:50;93902.97;;;21.67;100.00
21588;BME280;10956;48.878;13.316;2023-07-29T10:37:16;93899.00;;;21.77;100.00
21588;BME280;10956;48.878;13.316;2023-07-29T10:39:52;93896.44;;;21.96;100.00
21588;BME280;10956;48.878;13.316;2023-07-29T10:42:18;93900.50;;;22.34;100.00
21588;BME280;10956;48.878;13.316;2023-07-29T10:44:47;93881.50;;;22.74;100.00
21588;BME280;10956;48.878;13.316;2023-07-29T10:49:53;93869.25;;;23.46;100.00
21588;BME280;10956;48.878;13.316;2023-07-29T10:52:31;93870.72;;;23.82;100.00
21588;BME280;10956;48.878;13.316;2023-07-29T10:54:57;93871.63;;;23.90;99.46
21588;BME280;10956;48.878;13.316;2023-07-29T10:57:38;93873.59;;;23.93;95.99
21588;BME280;10956;48.878;13.316;2023-07-29T11:00:04;93862.78;;;24.12;93.59
21588;BME280;10956;48.878;13.316;2023-07-29T11:02:31;93869.41;;;24.38;94.59
21588;BME280;10956;48.878;13.316;2023-07-29T11:04:57;93867.34;;;24.54;93.98
21588;BME280;10956;48.878;13.316;2023-07-29T11:07:25;93855.25;;;24.67;93.56
21588;BME280;10956;48.878;13.316;2023-07-29T11:10:02;93852.03;;;24.85;92.79
21588;BME280;10956;48.878;13.316;2023-07-29T11:12:36;93843.38;;;24.98;92.21
21588;BME280;10956;48.878;13.316;2023-07-29T11:15:13;93847.50;;;25.19;90.99
21588;BME280;10956;48.878;13.316;2023-07-29T11:17:44;93845.34;;;25.31;91.06
21588;BME280;10956;48.878;13.316;2023-07-29T11:20:11;93840.94;;;25.50;92.25
21588;BME280;10956;48.878;13.316;2023-07-29T11:22:37;93846.28;;;25.76;92.08
21588;BME280;10956;48.878;13.316;2023-07-29T11:25:04;93837.44;;;25.79;92.25
21588;BME280;10956;48.878;13.316;2023-07-29T11:27:30;93837.59;;;25.93;91.36
21588;BME280;10956;48.878;13.316;2023-07-29T11:30:00;93848.50;;;26.07;88.79
21588;BME280;10956;48.878;13.316;2023-07-29T11:32:27;93844.47;;;25.87;90.26
21588;BME280;10956;48.878;13.316;2023-07-29T11:34:52;93853.16;;;25.40;91.32
21588;BME280;10956;48.878;13.316;2023-07-29T11:37:18;93890.06;;;24.79;93.73
21588;BME280;10956;48.878;13.316;2023-07-29T11:39:45;93894.13;;;24.01;96.03
21588;BME280;10956;48.878;13.316;2023-07-29T11:42:11;93869.09;;;23.39;100.00
21588;BME280;10956;48.878;13.316;2023-07-29T11:44:37;93877.06;;;22.97;100.00
21588;BME280;10956;48.878;13.316;2023-07-29T11:47:09;93883.13;;;22.78;100.00
21588;BME280;10956;48.878;13.316;2023-07-29T11:49:35;93892.41;;;22.65;100.00
21588;BME280;10956;48.878;13.316;2023-07-29T11:52:02;93896.06;;;22.57;100.00
21588;BME280;10956;48.878;13.316;2023-07-29T11:54:28;93890.25;;;22.55;100.00
21588;BME280;10956;48.878;13.316;2023-07-29T11:56:55;93888.34;;;22.71;100.00
21588;BME280;10956;48.878;13.316;2023-07-29T11:59:21;93882.53;;;23.20;100.00
21588;BME280;10956;48.878;13.316;2023-07-29T12:01:47;93878.44;;;23.84;100.00
21588;BME280;10956;48.878;13.316;2023-07-29T12:04:13;93887.94;;;24.43;100.00
21588;BME280;10956;48.878;13.316;2023-07-29T12:06:39;93880.84;;;24.80;100.00
21588;BME280;10956;48.878;13.316;2023-07-29T12:09:04;93876.44;;;24.95;97.55
21588;BME280;10956;48.878;13.316;2023-07-29T12:11:31;93876.59;;;24.79;95.92
21588;BME280;10956;48.878;13.316;2023-07-29T12:13:57;93875.63;;;24.42;97.74
21588;BME280;10956;48.878;13.316;2023-07-29T12:16:22;93890.69;;;24.24;99.52
21588;BME280;10956;48.878;13.316;2023-07-29T12:18:50;93879.38;;;24.14;99.88
21588;BME280;10956;48.878;13.316;2023-07-29T12:21:15;93878.69;;;23.98;99.93
21588;BME280;10956;48.878;13.316;2023-07-29T12:23:42;93879.41;;;23.95;99.36
21588;BME280;10956;48.878;13.316;2023-07-29T12:26:08;93872.41;;;23.91;99.30
21588;BME280;10956;48.878;13.316;2023-07-29T12:28:33;93869.47;;;23.99;98.41
21588;BME280;10956;48.878;13.316;2023-07-29T12:30:59;93869.00;;;24.16;98.66
21588;BME280;10956;48.878;13.316;2023-07-29T12:33:31;93869.28;;;24.31;98.64
21588;BME280;10956;48.878;13.316;2023-07-29T12:35:57;93875.50;;;24.35;97.31
21588;BME280;10956;48.878;13.316;2023-07-29T12:38:22;93875.25;;;24.21;96.27
21588;BME280;10956;48.878;13.316;2023-07-29T12:40:48;93870.44;;;24.10;95.73
21588;BME280;10956;48.878;13.316;2023-07-29T12:43:13;93871.34;;;24.18;95.47
21588;BME280;10956;48.878;13.316;2023-07-29T12:45:38;93869.28;;;24.31;95.53
21588;BME280;10956;48.878;13.316;2023-07-29T12:48:08;93871.91;;;24.50;94.56
21588;BME280;10956;48.878;13.316;2023-07-29T12:50:34;93866.63;;;24.57;94.12
21588;BME280;10956;48.878;13.316;2023-07-29T12:52:59;93867.22;;;24.70;93.35